Time;durP1;ratioP1;P1;durP2;ratioP2;P2;SDS_P1;SDS_P2;PMS_P1;PMS_P2;Temp;Humidity;BMP_temperature;BMP_pressure;BME280_temperature;BME280_humidity;BME280_pressure;Samples;Min_cycle;Max_cycle;Signal;HPM_P1;HPM_P2
2023/08/14 00:01:05;;;;;;;5.10;4.00;;;;;;;18.60;79.95;100800.80;103759;268;38379;-74
2023/08/14 00:03:44;;;;;;;5.80;3.90;;;;;;;18.60;80.04;100805.23;103809;278;38343;-74
2023/08/14 00:06:24;;;;;;;5.00;3.90;;;;;;;18.60;79.90;100808.29;103819;279;39408;-74
2023/08/14 00:09:07;;;;;;;4.30;4.00;;;;;;;18.59;80.16;100805.46;103716;279;38394;-73
2023/08/14 00:11:43;;;;;;;4.50;3.80;;;;;;;18.56;79.89;100803.67;103702;278;174895;-74
2023/08/14 00:14:21;;;;;;;5.60;4.30;;;;;;;18.54;79.99;100800.68;103834;278;40444;-73
2023/08/14 00:16:55;;;;;;;5.10;4.40;;;;;;;18.51;80.02;100795.93;103846;279;38233;-74
2023/08/14 00:19:29;;;;;;;5.70;4.60;;;;;;;18.49;80.16;100799.70;103799;279;38982;-73
2023/08/14 00:22:03;;;;;;;4.90;3.80;;;;;;;18.48;80.00;100802.80;103679;279;38521;-73
2023/08/14 00:24:40;;;;;;;5.70;4.20;;;;;;;18.48;80.25;100800.34;103738;279;39353;-73
2023/08/14 00:27:16;;;;;;;5.70;4.00;;;;;;;18.46;80.28;100797.80;103817;279;38248;-74
2023/08/14 00:29:51;;;;;;;4.30;4.00;;;;;;;18.44;80.14;100798.27;103820;279;39627;-76
2023/08/14 00:32:25;;;;;;;5.30;4.20;;;;;;;18.42;80.26;100797.23;103864;279;39454;-73
2023/08/14 00:35:02;;;;;;;5.50;4.20;;;;;;;18.38;80.06;100802.43;103837;279;40287;-73
2023/08/14 00:37:48;;;;;;;6.60;4.10;;;;;;;18.33;79.81;100805.23;103803;279;38643;-74
2023/08/14 00:40:22;;;;;;;4.90;4.30;;;;;;;18.30;80.25;100809.45;103794;279;39648;-74
2023/08/14 00:42:56;;;;;;;5.80;4.40;;;;;;;18.29;80.19;100806.86;103848;278;38429;-74
2023/08/14 00:45:29;;;;;;;4.40;4.00;;;;;;;18.27;79.96;100809.81;103818;278;38255;-75
2023/08/14 00:48:07;;;;;;;6.90;3.80;;;;;;;18.22;80.07;100813.98;103840;279;38497;-73
2023/08/14 00:50:42;;;;;;;6.30;4.20;;;;;;;18.18;79.95;100817.09;103813;279;38792;-75
2023/08/14 00:53:16;;;;;;;8.80;3.90;;;;;;;18.15;79.87;100817.30;103852;279;39983;-74
2023/08/14 00:55:57;;;;;;;6.70;4.40;;;;;;;18.12;79.97;100816.24;103768;279;39381;-74
2023/08/14 00:58:31;;;;;;;4.20;3.80;;;;;;;18.08;80.08;100822.65;103812;279;38575;-73
2023/08/14 01:01:06;;;;;;;6.00;3.90;;;;;;;18.01;80.10;100827.70;103853;279;40048;-74
2023/08/14 01:03:45;;;;;;;5.30;3.90;;;;;;;17.97;80.13;100831.80;103689;279;174922;-73
2023/08/14 01:06:20;;;;;;;4.20;3.80;;;;;;;17.93;80.37;100833.85;103841;279;40024;-73
2023/08/14 01:08:54;;;;;;;5.50;3.70;;;;;;;17.92;80.91;100832.08;103816;279;38278;-74
2023/08/14 01:11:38;;;;;;;8.60;3.90;;;;;;;17.94;81.18;100836.04;103863;279;38226;-73
2023/08/14 01:14:15;;;;;;;6.10;4.60;;;;;;;17.96;81.00;100840.00;103871;274;38753;-74
2023/08/14 01:16:52;;;;;;;5.70;4.90;;;;;;;17.96;81.08;100838.91;103807;279;38462;-74
2023/08/14 01:19:38;;;;;;;6.30;4.40;;;;;;;17.96;81.15;100836.80;103848;279;39776;-73
2023/08/14 01:22:27;;;;;;;6.40;5.40;;;;;;;17.99;81.53;100841.59;103676;280;39512;-74
2023/08/14 01:25:27;;;;;;;7.90;5.10;;;;;;;18.05;82.13;100844.15;103857;279;38748;-73
2023/08/14 01:28:06;;;;;;;5.90;5.30;;;;;;;18.16;82.46;100848.33;103813;279;39710;-75
2023/08/14 01:30:44;;;;;;;7.20;5.50;;;;;;;18.25;83.00;100845.45;103802;279;39799;-73
2023/08/14 01:33:22;;;;;;;5.70;5.10;;;;;;;18.32;82.93;100845.89;103840;279;38295;-73
2023/08/14 01:36:03;;;;;;;6.20;5.50;;;;;;;18.39;82.98;100849.14;103881;277;38556;-73
2023/08/14 01:38:41;;;;;;;6.60;6.00;;;;;;;18.45;82.77;100850.17;103851;277;38713;-74
2023/08/14 01:41:19;;;;;;;6.10;5.20;;;;;;;18.49;82.93;100853.97;103720;281;39396;-73
2023/08/14 01:43:59;;;;;;;5.50;5.00;;;;;;;18.52;83.13;100854.31;103809;279;38616;-73
2023/08/14 01:46:35;;;;;;;6.30;5.10;;;;;;;18.56;83.23;100857.23;103829;278;38486;-74
2023/08/14 01:49:09;;;;;;;5.50;4.90;;;;;;;18.60;83.18;100853.14;103803;279;39094;-73
2023/08/14 01:51:45;;;;;;;6.30;5.20;;;;;;;18.64;83.75;100845.76;103871;279;39450;-73
2023/08/14 01:54:20;;;;;;;6.80;5.60;;;;;;;18.71;83.49;100849.05;103795;279;39717;-75
2023/08/14 01:56:55;;;;;;;7.50;5.70;;;;;;;18.76;83.51;100851.55;103844;278;39232;-74
2023/08/14 01:59:45;;;;;;;8.10;5.60;;;;;;;18.80;83.35;100858.06;103777;279;40118;-74
2023/08/14 02:02:19;;;;;;;5.90;5.30;;;;;;;18.82;82.94;100862.87;103837;279;38377;-73
2023/08/14 02:04:52;;;;;;;5.80;5.20;;;;;;;18.82;82.73;100859.86;103842;278;38517;-73
2023/08/14 02:07:28;;;;;;;6.10;5.50;;;;;;;18.84;82.73;100860.65;103873;279;38441;-73
2023/08/14 02:10:02;;;;;;;5.80;5.20;;;;;;;18.85;82.40;100864.42;103819;279;39884;-73
2023/08/14 02:12:37;;;;;;;7.90;5.80;;;;;;;18.84;82.31;100863.30;103865;279;38501;-74
2023/08/14 02:15:14;;;;;;;5.70;5.10;;;;;;;18.79;82.26;100865.15;103818;279;40094;-75
2023/08/14 02:17:48;;;;;;;5.60;5.10;;;;;;;18.77;82.16;100865.48;103752;279;39396;-74
2023/08/14 02:20:28;;;;;;;6.30;5.40;;;;;;;18.75;82.17;100861.90;103810;279;38262;-73
2023/08/14 02:23:07;;;;;;;6.60;5.70;;;;;;;18.72;82.27;100855.71;103767;278;172114;-74
2023/08/14 02:25:45;;;;;;;6.70;6.10;;;;;;;18.74;82.93;100862.83;103805;267;38460;-75
2023/08/14 02:28:23;;;;;;;8.70;6.70;;;;;;;18.74;82.85;100856.65;103816;279;38277;-75
2023/08/14 02:30:57;;;;;;;7.30;6.00;;;;;;;18.77;83.26;100852.79;103858;279;39416;-74
2023/08/14 02:33:34;;;;;;;8.00;7.10;;;;;;;18.79;83.50;100853.52;103807;279;39465;-75
2023/08/14 02:36:13;;;;;;;10.10;8.50;;;;;;;18.84;83.75;100856.90;103213;279;895867;-75
2023/08/14 02:38:52;;;;;;;14.00;9.80;;;;;;;18.87;84.62;100856.71;103835;279;39660;-74
2023/08/14 02:41:31;;;;;;;15.40;9.10;;;;;;;18.90;84.12;100857.21;103824;279;39021;-74
2023/08/14 02:44:07;;;;;;;14.30;9.10;;;;;;;18.93;84.11;100849.62;103840;279;38568;-73
2023/08/14 02:46:42;;;;;;;13.20;9.10;;;;;;;18.97;83.95;100854.30;103822;278;39662;-74
2023/08/14 02:49:17;;;;;;;11.30;9.60;;;;;;;19.01;83.55;100856.36;103687;279;174869;-73
2023/08/14 02:51:51;;;;;;;14.60;10.00;;;;;;;19.01;83.71;100852.42;103847;279;39082;-74
2023/08/14 02:54:25;;;;;;;12.90;8.10;;;;;;;19.03;83.66;100854.94;103809;278;39628;-76
2023/08/14 02:57:00;;;;;;;7.60;6.80;;;;;;;19.03;83.82;100853.56;103795;278;39862;-75
2023/08/14 02:59:35;;;;;;;9.30;7.50;;;;;;;19.03;84.18;100854.05;103834;278;38383;-74
2023/08/14 03:02:09;;;;;;;7.90;7.10;;;;;;;19.05;83.98;100854.66;103868;278;38849;-74
2023/08/14 03:04:44;;;;;;;7.40;6.60;;;;;;;19.07;84.12;100852.75;103806;279;38479;-73
2023/08/14 03:07:20;;;;;;;7.60;6.90;;;;;;;19.09;83.95;100854.41;103847;278;38273;-75
2023/08/14 03:09:54;;;;;;;8.40;7.50;;;;;;;19.12;84.08;100852.64;103805;279;39963;-74
2023/08/14 03:12:28;;;;;;;7.70;6.90;;;;;;;19.13;83.90;100855.19;103833;278;39654;-75
2023/08/14 03:15:02;;;;;;;11.60;8.30;;;;;;;19.14;83.81;100857.43;103807;279;38414;-75
2023/08/14 03:17:37;;;;;;;22.30;14.40;;;;;;;19.14;83.91;100851.05;103853;279;39189;-75
2023/08/14 03:20:13;;;;;;;20.70;13.50;;;;;;;19.13;83.79;100853.77;103814;279;38519;-74
2023/08/14 03:22:49;;;;;;;20.70;12.20;;;;;;;19.13;83.95;100857.12;103632;279;176834;-73
2023/08/14 03:25:29;;;;;;;17.10;12.10;;;;;;;19.14;83.98;100861.47;103821;279;40137;-73
2023/08/14 03:28:04;;;;;;;18.00;12.30;;;;;;;19.14;83.97;100862.50;103847;279;40162;-73
2023/08/14 03:30:42;;;;;;;17.80;12.60;;;;;;;19.18;84.02;100860.68;103785;279;38775;-74
2023/08/14 03:33:18;;;;;;;23.60;15.60;;;;;;;19.17;83.68;100852.96;103823;279;39741;-75
2023/08/14 03:35:57;;;;;;;25.30;18.10;;;;;;;19.14;83.72;100855.09;103833;278;38511;-75
2023/08/14 03:38:31;;;;;;;20.20;15.80;;;;;;;19.17;84.03;100859.55;103743;279;38240;-73
2023/08/14 03:41:06;;;;;;;15.40;13.50;;;;;;;19.19;83.96;100858.87;103870;279;38251;-74
2023/08/14 03:43:40;;;;;;;13.20;11.30;;;;;;;19.19;84.35;100856.77;103299;279;670675;-73
2023/08/14 03:46:15;;;;;;;12.40;11.00;;;;;;;19.19;84.53;100853.59;103880;279;38217;-74
2023/08/14 03:48:49;;;;;;;11.70;10.60;;;;;;;19.20;84.34;100853.82;103805;279;38671;-74
2023/08/14 03:51:23;;;;;;;10.60;9.50;;;;;;;19.21;84.47;100854.45;103807;279;38733;-74
2023/08/14 03:53:57;;;;;;;10.10;9.10;;;;;;;19.22;84.29;100849.29;103819;266;38952;-74
2023/08/14 03:56:32;;;;;;;12.40;10.10;;;;;;;19.24;84.29;100845.96;103825;278;38769;-73
2023/08/14 03:59:09;;;;;;;13.80;11.50;;;;;;;19.24;84.38;100845.23;103807;279;39604;-73
2023/08/14 04:01:44;;;;;;;14.70;10.60;;;;;;;19.25;84.59;100844.66;103861;279;39973;-74
2023/08/14 04:04:21;;;;;;;12.40;10.60;;;;;;;19.28;84.84;100848.86;103825;279;39849;-74
2023/08/14 04:06:58;;;;;;;11.70;9.50;;;;;;;19.30;84.76;100849.45;103841;279;38830;-73
2023/08/14 04:09:35;;;;;;;12.00;8.90;;;;;;;19.29;84.57;100851.09;103801;279;39186;-73
2023/08/14 04:12:11;;;;;;;10.10;9.10;;;;;;;19.29;84.54;100848.08;103146;279;896779;-73
2023/08/14 04:14:46;;;;;;;9.10;8.10;;;;;;;19.30;84.73;100846.62;103811;278;39692;-73
2023/08/14 04:17:22;;;;;;;9.30;8.40;;;;;;;19.29;84.67;100854.81;103864;279;38546;-73
2023/08/14 04:20:00;;;;;;;9.10;8.00;;;;;;;19.29;84.79;100850.91;103175;278;895886;-75
2023/08/14 04:22:34;;;;;;;8.90;7.90;;;;;;;19.28;84.86;100856.96;103735;280;40280;-75
2023/08/14 04:25:18;;;;;;;8.50;7.70;;;;;;;19.31;85.08;100858.25;103791;279;38453;-73
2023/08/14 04:27:52;;;;;;;9.80;7.90;;;;;;;19.40;85.26;100861.55;103817;278;38499;-74
2023/08/14 04:30:29;;;;;;;8.40;7.40;;;;;;;19.52;85.24;100865.52;103835;279;38271;-73
2023/08/14 04:33:03;;;;;;;8.40;7.60;;;;;;;19.60;85.07;100867.44;103841;279;38319;-73
2023/08/14 04:35:40;;;;;;;10.70;7.60;;;;;;;19.69;84.99;100868.46;103864;279;38278;-73
2023/08/14 04:38:14;;;;;;;11.60;8.40;;;;;;;19.79;84.89;100870.38;103826;278;39786;-73
2023/08/14 04:40:53;;;;;;;10.70;7.80;;;;;;;19.91;84.93;100872.47;103790;279;38570;-75
2023/08/14 04:43:31;;;;;;;8.20;7.40;;;;;;;19.96;84.31;100866.40;103797;278;40116;-74
2023/08/14 04:46:11;;;;;;;8.70;7.70;;;;;;;20.00;84.14;100871.98;103863;279;38565;-75
2023/08/14 04:48:45;;;;;;;10.50;7.80;;;;;;;20.04;83.90;100872.54;103856;278;40094;-75
2023/08/14 04:51:19;;;;;;;9.20;7.60;;;;;;;20.16;83.92;100872.42;103828;278;38310;-75
2023/08/14 04:53:53;;;;;;;13.20;7.70;;;;;;;20.43;83.98;100875.86;103820;278;39634;-75
2023/08/14 04:56:28;;;;;;;12.60;8.20;;;;;;;20.88;83.92;100879.70;103821;279;38262;-74
2023/08/14 04:59:02;;;;;;;8.70;7.90;;;;;;;21.56;84.40;100883.40;103804;278;39412;-74
2023/08/14 05:01:36;;;;;;;9.20;7.90;;;;;;;22.34;84.63;100894.04;103867;278;38369;-74
2023/08/14 05:04:16;;;;;;;8.30;7.40;;;;;;;22.83;80.27;100894.92;103787;275;38469;-75
2023/08/14 05:06:51;;;;;;;10.40;7.80;;;;;;;23.03;77.23;100894.53;103815;279;38694;-76
2023/08/14 05:09:26;;;;;;;14.30;7.60;;;;;;;22.99;75.83;100895.93;103851;278;38535;-76
2023/08/14 05:12:02;;;;;;;11.30;7.80;;;;;;;22.88;74.57;100898.45;103808;278;39472;-73
2023/08/14 05:14:36;;;;;;;10.00;8.30;;;;;;;22.81;74.64;100895.31;103784;279;39628;-74
2023/08/14 05:17:12;;;;;;;8.60;7.70;;;;;;;22.76;74.32;100895.83;103709;279;39574;-74
2023/08/14 05:19:46;;;;;;;9.50;8.60;;;;;;;22.66;73.60;100897.06;103765;278;39961;-74
2023/08/14 05:22:22;;;;;;;10.60;8.80;;;;;;;22.57;73.75;100902.58;103706;279;38395;-75
2023/08/14 05:24:56;;;;;;;10.30;7.90;;;;;;;22.55;74.09;100901.43;103783;279;38340;-75
2023/08/14 05:27:31;;;;;;;8.40;7.50;;;;;;;22.62;74.02;100901.94;103835;278;38737;-74
2023/08/14 05:30:07;;;;;;;11.30;8.80;;;;;;;22.70;74.02;100894.95;103802;279;38617;-74
2023/08/14 05:32:46;;;;;;;10.30;8.30;;;;;;;22.72;73.55;100889.09;103799;275;38260;-75
2023/08/14 05:35:23;;;;;;;9.00;8.10;;;;;;;22.77;73.55;100889.06;103803;279;38282;-75
2023/08/14 05:37:58;;;;;;;12.30;8.30;;;;;;;22.86;73.24;100893.80;103849;278;39022;-75
2023/08/14 05:40:33;;;;;;;9.50;8.40;;;;;;;22.95;73.24;100893.30;103780;278;38220;-73
2023/08/14 05:43:11;;;;;;;10.90;7.90;;;;;;;23.19;73.77;100901.93;103728;279;38312;-76
2023/08/14 05:45:46;;;;;;;12.40;8.00;;;;;;;23.93;74.90;100901.05;103794;279;38482;-77
2023/08/14 05:48:23;;;;;;;10.00;8.10;;;;;;;24.96;72.08;100899.73;103852;279;38231;-73
2023/08/14 05:50:59;;;;;;;9.80;7.70;;;;;;;25.72;68.26;100898.69;103882;279;38211;-74
2023/08/14 05:53:33;;;;;;;10.70;7.80;;;;;;;26.41;65.44;100902.52;103819;279;39419;-73
2023/08/14 05:56:12;;;;;;;9.00;7.30;;;;;;;27.15;63.66;100900.45;103723;279;38227;-74
2023/08/14 05:58:51;;;;;;;9.00;7.20;;;;;;;28.00;62.16;100906.77;103811;279;38236;-74
2023/08/14 06:01:29;;;;;;;11.10;8.60;;;;;;;28.71;58.29;100900.94;103849;279;38479;-75
2023/08/14 06:04:04;;;;;;;12.00;9.20;;;;;;;29.36;56.66;100901.80;103789;278;39285;-74
2023/08/14 06:06:39;;;;;;;9.80;7.00;;;;;;;30.03;54.12;100903.48;103870;279;38688;-74
2023/08/14 06:09:14;;;;;;;10.20;7.50;;;;;;;30.69;51.88;100901.52;103793;278;39533;-74
2023/08/14 06:11:48;;;;;;;12.70;8.10;;;;;;;31.12;49.14;100903.95;103845;279;38546;-77
2023/08/14 06:14:26;;;;;;;10.90;6.70;;;;;;;31.58;48.34;100899.77;103799;279;38528;-75
2023/08/14 06:17:02;;;;;;;8.40;6.50;;;;;;;32.10;46.30;100904.20;103834;279;38219;-75
2023/08/14 06:19:40;;;;;;;7.60;6.10;;;;;;;32.58;45.38;100902.50;103803;278;39195;-76
2023/08/14 06:22:17;;;;;;;9.90;7.30;;;;;;;33.08;44.53;100904.82;103830;278;39412;-75
2023/08/14 06:24:53;;;;;;;11.30;8.00;;;;;;;33.37;42.29;100903.81;103791;278;38247;-75
2023/08/14 06:27:29;;;;;;;9.70;7.50;;;;;;;33.60;42.17;100906.36;103870;279;38381;-75
2023/08/14 06:30:04;;;;;;;;;;;;;;;33.97;40.97;100907.02;103831;279;38275;-75
2023/08/14 06:32:38;;;;;;;11.70;8.60;;;;;;;34.07;40.05;100911.41;103831;278;38235;-74
2023/08/14 06:35:12;;;;;;;16.50;12.30;;;;;;;34.18;39.57;100913.02;103807;279;38276;-75
2023/08/14 06:37:47;;;;;;;20.00;12.30;;;;;;;34.05;39.27;100906.78;103812;279;39018;-75
2023/08/14 06:40:21;;;;;;;20.10;13.10;;;;;;;33.72;39.18;100910.24;103841;279;38389;-75
2023/08/14 06:42:55;;;;;;;17.70;11.70;;;;;;;33.35;39.79;100909.77;103824;279;39634;-74
2023/08/14 06:45:34;;;;;;;17.40;12.90;;;;;;;33.03;39.79;100913.36;103794;279;38418;-74
2023/08/14 06:48:10;;;;;;;15.80;10.50;;;;;;;32.82;40.39;100914.52;103861;279;39644;-76
2023/08/14 06:50:45;;;;;;;8.80;7.30;;;;;;;32.83;40.25;100915.11;103813;278;38672;-75
2023/08/14 06:53:19;;;;;;;9.90;6.50;;;;;;;32.57;40.11;100916.87;103842;279;38243;-75
2023/08/14 06:55:58;;;;;;;8.40;6.70;;;;;;;32.27;40.87;100914.85;103780;279;38549;-74
2023/08/14 06:58:32;;;;;;;11.50;6.50;;;;;;;31.99;41.12;100911.81;103847;279;38216;-74
2023/08/14 07:01:06;;;;;;;8.80;6.90;;;;;;;31.59;41.92;100911.36;103845;279;39065;-75
2023/08/14 07:03:41;;;;;;;9.30;6.30;;;;;;;31.14;42.59;100907.73;103705;279;38493;-75
2023/08/14 07:06:15;;;;;;;7.80;6.40;;;;;;;30.82;43.49;100911.23;103851;279;38280;-75
2023/08/14 07:08:49;;;;;;;8.80;6.30;;;;;;;30.62;43.98;100911.13;103810;279;38242;-75
2023/08/14 07:11:25;;;;;;;8.10;5.90;;;;;;;30.37;44.25;100911.49;103836;279;38365;-74
2023/08/14 07:14:03;;;;;;;9.30;7.50;;;;;;;30.08;44.89;100914.23;103830;279;38518;-74
2023/08/14 07:16:37;;;;;;;7.50;6.10;;;;;;;29.84;45.41;100905.89;103922;279;38557;-75
2023/08/14 07:19:12;;;;;;;7.20;5.80;;;;;;;29.71;45.97;100906.48;103810;278;38525;-75
2023/08/14 07:21:46;;;;;;;8.50;6.20;;;;;;;29.66;46.69;100901.80;103859;279;39498;-76
2023/08/14 07:24:23;;;;;;;6.10;5.40;;;;;;;29.74;46.64;100904.45;103746;279;171194;-76
2023/08/14 07:26:58;;;;;;;6.90;6.00;;;;;;;29.87;45.92;100906.15;103757;279;38258;-74
2023/08/14 07:29:32;;;;;;;8.70;5.50;;;;;;;29.95;46.06;100912.42;103786;278;38619;-74
2023/08/14 07:32:09;;;;;;;8.50;5.60;;;;;;;30.28;46.18;100919.73;103756;279;39418;-75
2023/08/14 07:34:43;;;;;;;5.60;5.10;;;;;;;30.91;45.78;100917.77;103676;280;38332;-75
2023/08/14 07:37:17;;;;;;;8.90;5.20;;;;;;;31.61;44.76;100914.04;103843;279;39961;-74
2023/08/14 07:39:51;;;;;;;6.60;5.20;;;;;;;32.20;43.71;100918.55;103171;279;881590;-74
2023/08/14 07:42:27;;;;;;;11.10;5.40;;;;;;;32.60;42.74;100919.79;103824;278;38283;-75
2023/08/14 07:45:02;;;;;;;8.80;5.50;;;;;;;32.85;42.13;100922.95;103837;279;38246;-75
2023/08/14 07:47:36;;;;;;;10.10;5.10;;;;;;;32.82;41.48;100921.61;103863;279;38822;-75
2023/08/14 07:50:13;;;;;;;6.80;5.10;;;;;;;32.64;41.54;100926.79;103854;279;39086;-74
2023/08/14 07:52:47;;;;;;;6.80;5.40;;;;;;;32.29;41.48;100924.69;103832;278;39478;-74
2023/08/14 07:55:23;;;;;;;8.10;4.70;;;;;;;32.40;42.60;100924.63;103826;279;38500;-75
2023/08/14 07:58:01;;;;;;;7.40;4.90;;;;;;;32.94;41.71;100918.27;103730;279;175916;-76
2023/08/14 08:00:36;;;;;;;7.60;5.00;;;;;;;33.35;40.77;100917.90;103804;279;38682;-76
2023/08/14 08:03:13;;;;;;;6.80;4.90;;;;;;;33.69;40.18;100919.91;103859;278;39870;-74
2023/08/14 08:05:58;;;;;;;5.50;4.80;;;;;;;33.92;39.89;100922.98;103718;279;38281;-75
2023/08/14 08:08:34;;;;;;;6.70;5.00;;;;;;;34.22;38.54;100921.91;103816;279;40108;-75
2023/08/14 08:11:09;;;;;;;6.40;4.90;;;;;;;33.94;38.39;100920.73;103853;279;39531;-75
2023/08/14 08:13:45;;;;;;;9.80;5.10;;;;;;;33.73;39.21;100925.45;103866;279;38536;-75
2023/08/14 08:16:20;;;;;;;6.00;4.60;;;;;;;33.70;39.54;100930.98;103881;266;38457;-76
2023/08/14 08:18:54;;;;;;;7.10;4.80;;;;;;;33.69;39.14;100931.15;103792;279;38297;-76
2023/08/14 08:21:29;;;;;;;4.10;3.60;;;;;;;33.96;39.47;100931.83;103763;279;38873;-76
2023/08/14 08:24:02;;;;;;;5.40;4.00;;;;;;;34.66;37.82;100931.59;103810;278;39686;-75
2023/08/14 08:26:36;;;;;;;4.30;3.90;;;;;;;35.28;37.74;100930.90;103757;279;38558;-75
2023/08/14 08:29:13;;;;;;;3.90;3.20;;;;;;;35.92;36.37;100921.48;103790;278;38562;-74
2023/08/14 08:31:47;;;;;;;3.80;3.30;;;;;;;36.45;35.30;100927.94;103895;278;39629;-77
2023/08/14 08:34:21;;;;;;;3.80;3.50;;;;;;;36.86;34.36;100927.84;103802;279;39558;-76
2023/08/14 08:36:56;;;;;;;4.10;3.50;;;;;;;37.28;33.46;100924.78;103837;278;38284;-76
2023/08/14 08:39:31;;;;;;;3.30;3.00;;;;;;;37.66;32.74;100925.27;103762;279;39987;-76
2023/08/14 08:42:08;;;;;;;5.10;3.30;;;;;;;38.04;32.48;100924.29;103870;278;38826;-75
2023/08/14 08:44:48;;;;;;;5.10;3.70;;;;;;;38.48;31.48;100922.17;103803;278;38509;-74
2023/08/14 08:47:31;;;;;;;3.70;3.40;;;;;;;38.62;30.77;100928.14;103732;279;38262;-76
2023/08/14 08:50:19;;;;;;;3.80;3.50;;;;;;;38.43;31.24;100927.39;103821;279;38437;-76
2023/08/14 08:52:55;;;;;;;3.30;3.10;;;;;;;38.77;31.30;100929.77;103869;278;38947;-77
2023/08/14 08:55:32;;;;;;;4.50;3.70;;;;;;;39.00;30.26;100927.87;103804;279;39722;-77
2023/08/14 08:58:06;;;;;;;4.30;3.20;;;;;;;38.98;29.94;100928.90;103833;278;39593;-76
2023/08/14 09:00:41;;;;;;;5.70;3.40;;;;;;;39.07;30.04;100924.06;103821;279;38510;-76
2023/08/14 09:03:15;;;;;;;3.40;3.10;;;;;;;39.32;29.98;100918.83;103852;279;38355;-77
2023/08/14 09:05:57;;;;;;;3.40;3.20;;;;;;;39.65;29.42;100920.61;103855;278;38410;-75
2023/08/14 09:08:31;;;;;;;4.80;3.20;;;;;;;39.60;29.05;100920.86;103801;278;38247;-75
2023/08/14 09:11:06;;;;;;;3.60;3.20;;;;;;;39.20;29.29;100920.55;103738;279;38954;-76
2023/08/14 09:13:42;;;;;;;3.40;3.10;;;;;;;38.82;29.86;100912.16;103837;278;38327;-76
2023/08/14 09:16:18;;;;;;;4.70;3.00;;;;;;;38.83;29.76;100904.33;103864;279;38667;-75
2023/08/14 09:18:55;;;;;;;4.40;3.20;;;;;;;38.97;29.93;100896.44;103833;279;38271;-76
2023/08/14 09:21:29;;;;;;;3.40;3.10;;;;;;;39.21;29.43;100901.05;103846;279;38244;-75
2023/08/14 09:24:03;;;;;;;4.30;3.30;;;;;;;39.21;29.63;100901.59;103709;279;173857;-76
2023/08/14 09:26:37;;;;;;;3.80;3.00;;;;;;;39.33;29.59;100901.67;103254;279;883617;-75
2023/08/14 09:29:11;;;;;;;3.40;3.10;;;;;;;39.38;29.47;100900.54;103806;279;38844;-75
2023/08/14 09:31:48;;;;;;;3.00;2.80;;;;;;;39.36;29.29;100894.57;103841;279;38294;-75
2023/08/14 09:34:23;;;;;;;4.30;3.30;;;;;;;38.84;29.28;100894.86;103829;279;39271;-75
2023/08/14 09:36:59;;;;;;;4.60;3.70;;;;;;;38.03;29.69;100894.13;103716;280;39566;-76
2023/08/14 09:39:33;;;;;;;6.00;3.90;;;;;;;37.20;30.12;100889.27;103786;279;38233;-76
2023/08/14 09:42:07;;;;;;;6.00;3.40;;;;;;;36.43;31.25;100887.46;103846;279;38646;-75
2023/08/14 09:44:44;;;;;;;4.20;3.80;;;;;;;35.73;32.42;100884.92;103802;279;38289;-75
2023/08/14 09:47:21;;;;;;;5.10;4.40;;;;;;;35.16;33.51;100885.58;103825;279;39527;-76
2023/08/14 09:50:01;;;;;;;4.10;3.60;;;;;;;34.81;34.18;100876.15;103816;279;39471;-74
2023/08/14 09:52:36;;;;;;;4.30;3.60;;;;;;;34.63;34.98;100882.54;103848;279;38250;-76
2023/08/14 09:55:11;;;;;;;4.30;3.60;;;;;;;34.60;35.17;100879.81;103718;279;39145;-76
2023/08/14 09:57:45;;;;;;;3.50;3.20;;;;;;;34.58;35.52;100877.63;103834;278;38234;-75
2023/08/14 10:00:20;;;;;;;4.10;3.70;;;;;;;34.51;35.73;100876.89;103789;279;38467;-75
2023/08/14 10:02:55;;;;;;;4.50;4.10;;;;;;;34.37;35.78;100875.45;103851;279;38953;-75
2023/08/14 10:05:29;;;;;;;4.70;4.40;;;;;;;34.18;36.25;100875.40;103662;280;39371;-74
2023/08/14 10:08:04;;;;;;;4.30;4.00;;;;;;;34.03;36.54;100878.41;103818;279;38247;-76
2023/08/14 10:10:38;;;;;;;5.00;4.00;;;;;;;33.94;36.85;100877.77;103856;278;38279;-76
2023/08/14 10:13:12;;;;;;;6.00;4.10;;;;;;;33.84;37.17;100879.97;103882;279;38364;-76
2023/08/14 10:15:52;;;;;;;5.10;4.30;;;;;;;33.73;37.34;100873.84;103828;278;38295;-74
2023/08/14 10:18:27;;;;;;;4.60;4.00;;;;;;;33.59;37.68;100874.31;103761;278;38261;-76
2023/08/14 10:21:06;;;;;;;4.40;4.00;;;;;;;33.51;37.97;100880.60;103834;279;38473;-75
2023/08/14 10:23:46;;;;;;;4.40;4.00;;;;;;;33.47;37.97;100879.64;103837;278;38794;-75
2023/08/14 10:26:21;;;;;;;6.80;4.50;;;;;;;33.38;38.56;100882.00;103853;279;38603;-75
2023/08/14 10:28:55;;;;;;;4.30;3.90;;;;;;;33.33;38.91;100876.08;103816;278;39806;-75
2023/08/14 10:31:30;;;;;;;4.90;4.40;;;;;;;33.30;38.89;100878.70;103758;279;38705;-74
2023/08/14 10:34:05;;;;;;;4.50;3.90;;;;;;;33.29;39.28;100875.57;103831;279;38543;-74
2023/08/14 10:36:41;;;;;;;5.30;4.00;;;;;;;33.30;39.47;100874.88;103686;279;38526;-76
2023/08/14 10:39:15;;;;;;;6.10;4.50;;;;;;;33.28;39.35;100871.89;103787;278;38262;-76
2023/08/14 10:41:50;;;;;;;5.90;4.50;;;;;;;33.27;39.24;100870.55;103654;279;172950;-75
2023/08/14 10:44:32;;;;;;;6.90;4.40;;;;;;;33.17;39.54;100872.25;103822;279;39112;-74
2023/08/14 10:47:16;;;;;;;6.60;4.20;;;;;;;33.16;39.66;100876.74;103825;278;39848;-75
2023/08/14 10:49:53;;;;;;;5.40;4.20;;;;;;;33.14;39.54;100873.52;103778;279;38488;-75
2023/08/14 10:52:28;;;;;;;4.10;3.70;;;;;;;33.06;39.55;100868.02;103792;278;39393;-76
2023/08/14 10:55:04;;;;;;;4.40;3.90;;;;;;;33.03;39.49;100862.77;103834;279;38530;-77
2023/08/14 10:57:40;;;;;;;3.60;3.30;;;;;;;33.00;39.43;100863.78;103869;279;38252;-75
2023/08/14 11:00:28;;;;;;;5.40;3.70;;;;;;;32.96;38.93;100863.58;103798;279;39434;-75
2023/08/14 11:03:09;;;;;;;4.40;3.60;;;;;;;32.90;38.60;100861.73;103856;279;38470;-74
2023/08/14 11:05:43;;;;;;;4.10;3.30;;;;;;;32.83;39.06;100867.11;103834;278;39689;-75
2023/08/14 11:08:17;;;;;;;5.00;3.90;;;;;;;32.83;39.07;100857.15;103828;279;39544;-74
2023/08/14 11:10:52;;;;;;;3.60;3.10;;;;;;;32.83;38.88;100856.95;103712;279;173959;-74
2023/08/14 11:13:34;;;;;;;5.90;3.70;;;;;;;32.85;38.84;100861.80;103833;278;38481;-74
2023/08/14 11:16:13;;;;;;;3.40;2.90;;;;;;;32.82;38.99;100860.27;103850;279;38439;-75
2023/08/14 11:18:47;;;;;;;4.00;3.40;;;;;;;32.82;38.75;100852.02;103825;279;38354;-74
2023/08/14 11:21:21;;;;;;;4.00;3.10;;;;;;;32.82;39.08;100849.52;103860;279;38291;-76
2023/08/14 11:23:58;;;;;;;4.50;3.50;;;;;;;32.85;39.33;100846.61;103847;279;39404;-76
2023/08/14 11:26:35;;;;;;;3.90;3.30;;;;;;;32.87;39.17;100840.77;103878;278;39983;-76
2023/08/14 11:29:12;;;;;;;6.00;2.90;;;;;;;32.88;39.15;100840.95;103858;279;39938;-76
2023/08/14 11:31:49;;;;;;;5.30;3.40;;;;;;;32.86;39.12;100835.80;103742;279;38293;-75
2023/08/14 11:34:25;;;;;;;4.60;3.50;;;;;;;32.90;39.64;100840.59;103802;279;38769;-75
2023/08/14 11:37:02;;;;;;;3.70;3.00;;;;;;;32.90;38.96;100840.73;103824;278;38234;-75
2023/08/14 11:39:36;;;;;;;3.50;3.10;;;;;;;32.81;39.01;100839.62;103826;279;38521;-75
2023/08/14 11:42:10;;;;;;;3.40;3.10;;;;;;;32.77;39.54;100841.70;103874;279;39418;-75
2023/08/14 11:44:45;;;;;;;6.00;3.00;;;;;;;32.84;39.98;100839.69;103299;278;702751;-75
2023/08/14 11:47:22;;;;;;;4.00;3.30;;;;;;;32.90;39.57;100845.47;103871;278;39414;-74
2023/08/14 11:49:57;;;;;;;3.40;3.10;;;;;;;32.91;39.73;100847.85;103785;279;39920;-74
2023/08/14 11:52:35;;;;;;;6.40;3.20;;;;;;;32.92;39.85;100842.84;103850;279;38385;-74
2023/08/14 11:55:10;;;;;;;5.30;3.30;;;;;;;32.93;39.90;100841.85;103817;279;38293;-74
2023/08/14 11:57:48;;;;;;;3.20;2.80;;;;;;;32.92;39.73;100841.79;103831;279;38500;-75
2023/08/14 12:00:21;;;;;;;;;;;;;;;32.81;39.60;100832.98;103844;278;39527;-74
2023/08/14 12:02:59;;;;;;;3.90;3.00;;;;;;;32.77;40.39;100829.83;103875;279;38246;-75